createdAt,value
2018-05-31T00:01:13.329Z,64.44
2018-05-31T00:03:39.304Z,64.08
2018-05-31T00:06:05.280Z,64.07
2018-05-31T00:08:31.240Z,64.18
2018-05-31T00:10:57.217Z,63.76
2018-05-31T00:13:23.190Z,64.02
2018-05-31T00:15:49.157Z,64.19
2018-05-31T00:18:15.115Z,64.24
2018-05-31T00:20:41.119Z,63.93
2018-05-31T00:23:07.105Z,63.92
2018-05-31T00:25:33.056Z,64.13
2018-05-31T00:27:59.012Z,64.10
2018-05-31T00:30:24.973Z,63.67
2018-05-31T00:32:50.953Z,64.21
2018-05-31T00:35:16.928Z,63.86
2018-05-31T00:37:42.931Z,64.14
2018-05-31T00:40:08.896Z,63.99
2018-05-31T00:42:34.913Z,64.46
2018-05-31T00:45:00.838Z,64.43
2018-05-31T00:47:26.818Z,64.46
2018-05-31T00:49:52.950Z,64.10
2018-05-31T00:52:18.936Z,63.96
2018-05-31T00:54:44.925Z,63.98
2018-05-31T00:57:10.879Z,63.82
2018-05-31T00:59:36.876Z,63.60
2018-05-31T01:02:02.880Z,63.96
2018-05-31T01:04:28.860Z,63.69
2018-05-31T01:06:54.849Z,64.01
2018-05-31T01:09:20.839Z,63.69
2018-05-31T01:11:46.810Z,63.98
2018-05-31T01:14:12.793Z,64.19
2018-05-31T01:16:38.769Z,63.72
2018-05-31T01:19:04.728Z,63.94
2018-05-31T01:21:30.706Z,63.79
2018-05-31T01:23:56.679Z,63.90
2018-05-31T01:26:22.646Z,64.72
2018-05-31T01:28:48.612Z,64.76
2018-05-31T01:31:14.606Z,64.35
2018-05-31T01:33:40.586Z,64.15
2018-05-31T01:36:06.591Z,64.13
2018-05-31T01:38:32.542Z,64.03
2018-05-31T01:40:58.537Z,63.84
2018-05-31T01:43:24.512Z,63.88
2018-05-31T01:45:50.600Z,63.93
2018-05-31T01:48:16.582Z,64.19
2018-05-31T01:50:42.562Z,63.84
2018-05-31T01:53:08.541Z,63.79
2018-05-31T01:55:34.507Z,63.86
2018-05-31T01:58:00.511Z,63.88
2018-05-31T02:00:26.505Z,63.90
2018-05-31T02:02:52.493Z,63.86
2018-05-31T02:05:18.455Z,64.13
2018-05-31T02:07:44.458Z,64.29
2018-05-31T02:10:10.425Z,64.61
2018-05-31T02:12:36.409Z,64.31
2018-05-31T02:15:02.442Z,64.46
2018-05-31T02:17:28.413Z,64.24
2018-05-31T02:19:54.374Z,64.16
2018-05-31T02:22:20.349Z,63.99
2018-05-31T02:24:46.320Z,63.99
2018-05-31T02:27:12.318Z,63.99
2018-05-31T02:29:38.284Z,63.91
2018-05-31T02:32:04.253Z,63.92
2018-05-31T02:34:30.253Z,64.22
2018-05-31T02:36:56.218Z,64.06
2018-05-31T02:39:22.167Z,63.85
2018-05-31T02:41:48.140Z,63.56
2018-05-31T02:44:14.111Z,63.78
2018-05-31T02:46:40.109Z,64.21
2018-05-31T02:49:06.032Z,64.12
2018-05-31T02:51:32.004Z,64.67
2018-05-31T02:53:57.956Z,64.40
2018-05-31T02:56:23.937Z,64.83
2018-05-31T02:58:49.921Z,64.26
2018-05-31T03:01:15.873Z,64.12
2018-05-31T03:03:42.168Z,64.25
2018-05-31T03:06:08.136Z,64.21
2018-05-31T03:08:34.132Z,63.81
2018-05-31T03:11:00.084Z,63.67
2018-05-31T03:13:26.073Z,63.83
2018-05-31T03:15:52.048Z,63.99
2018-05-31T03:18:18.026Z,63.87
2018-05-31T03:20:43.998Z,64.25
2018-05-31T03:23:09.984Z,63.92
2018-05-31T03:25:35.964Z,63.83
2018-05-31T03:28:01.944Z,64.12
2018-05-31T03:30:27.927Z,64.41
2018-05-31T03:32:53.915Z,64.27
2018-05-31T03:35:19.890Z,64.44
2018-05-31T03:37:45.858Z,64.81
2018-05-31T03:40:11.847Z,64.98
2018-05-31T03:42:37.833Z,64.55
2018-05-31T03:45:03.811Z,64.51
2018-05-31T03:47:30.443Z,64.15
2018-05-31T03:49:56.388Z,63.91
2018-05-31T03:52:22.374Z,64.18
2018-05-31T03:54:48.349Z,64.16
2018-05-31T03:57:14.344Z,63.96
2018-05-31T03:59:40.324Z,63.93
2018-05-31T04:02:06.301Z,64.26
2018-05-31T04:04:32.289Z,64.35
2018-05-31T04:06:58.256Z,64.16
2018-05-31T04:09:24.221Z,64.26
2018-05-31T04:11:50.232Z,64.16
2018-05-31T04:14:16.255Z,64.21
2018-05-31T04:16:42.219Z,64.18
2018-05-31T04:19:08.170Z,64.32
2018-05-31T04:21:34.208Z,64.39
2018-05-31T04:24:00.160Z,64.86
2018-05-31T04:26:26.123Z,64.66
2018-05-31T04:28:52.075Z,64.16
2018-05-31T04:31:18.068Z,64.34
2018-05-31T04:33:44.099Z,64.38
2018-05-31T04:36:09.997Z,64.19
2018-05-31T04:38:35.964Z,63.81
2018-05-31T04:41:01.963Z,64.24
2018-05-31T04:43:27.944Z,64.30
2018-05-31T04:45:53.915Z,64.18
2018-05-31T04:48:19.929Z,63.83
2018-05-31T04:50:45.880Z,63.87
2018-05-31T04:53:11.878Z,63.97
2018-05-31T04:55:37.851Z,63.86
2018-05-31T04:58:03.820Z,64.35
2018-05-31T05:00:29.806Z,64.14
2018-05-31T05:02:55.806Z,64.57
2018-05-31T05:05:21.748Z,64.66
2018-05-31T05:07:47.715Z,64.85
2018-05-31T05:10:13.700Z,64.83
2018-05-31T05:12:39.693Z,63.67
2018-05-31T05:15:05.647Z,64.41
2018-05-31T05:17:31.636Z,64.31
2018-05-31T05:19:57.598Z,64.30
2018-05-31T05:22:23.589Z,64.24
2018-05-31T05:24:49.539Z,64.26
2018-05-31T05:27:15.490Z,64.30
2018-05-31T05:29:41.469Z,64.35
2018-05-31T05:32:07.459Z,64.16
2018-05-31T05:34:33.449Z,64.54
2018-05-31T05:37:00.495Z,63.94
2018-05-31T05:39:26.537Z,63.64
2018-05-31T05:41:52.548Z,63.99
2018-05-31T05:44:20.559Z,63.40
2018-05-31T05:46:46.524Z,64.25
2018-05-31T05:49:12.601Z,64.18
2018-05-31T05:51:38.628Z,64.06
2018-05-31T05:54:04.630Z,63.63
2018-05-31T05:56:30.677Z,64.50
2018-05-31T05:58:56.641Z,64.55
2018-05-31T06:01:22.605Z,64.13
2018-05-31T06:03:48.662Z,63.20
2018-05-31T06:06:14.658Z,63.84
2018-05-31T06:08:40.710Z,63.10
2018-05-31T06:11:06.699Z,63.16
2018-05-31T06:13:32.661Z,62.96
2018-05-31T06:15:58.639Z,63.93
2018-05-31T06:18:24.650Z,62.64
2018-05-31T06:20:50.612Z,62.92
2018-05-31T06:23:16.591Z,62.91
2018-05-31T06:25:42.562Z,62.19
2018-05-31T06:28:08.545Z,62.05
2018-05-31T06:30:34.498Z,62.69
2018-05-31T06:33:00.559Z,62.83
2018-05-31T06:35:26.568Z,63.06
2018-05-31T06:37:52.509Z,62.28
2018-05-31T06:40:18.480Z,62.48
2018-05-31T06:42:44.461Z,63.13
2018-05-31T06:45:10.449Z,62.80
2018-05-31T06:47:36.393Z,62.00
2018-05-31T06:50:02.365Z,62.95
2018-05-31T06:52:28.309Z,63.05
2018-05-31T06:54:54.275Z,63.34
2018-05-31T06:57:20.248Z,63.75
2018-05-31T06:59:46.222Z,63.66
2018-05-31T07:02:12.208Z,63.26
2018-05-31T07:04:38.151Z,62.96
2018-05-31T07:07:04.120Z,62.56
2018-05-31T07:09:30.086Z,63.91
2018-05-31T07:11:56.056Z,62.30
2018-05-31T07:14:22.027Z,62.80
2018-05-31T07:16:47.942Z,62.69
2018-05-31T07:19:13.888Z,63.32
2018-05-31T07:21:39.924Z,63.42
2018-05-31T07:24:05.857Z,63.64
2018-05-31T07:26:31.833Z,64.10
2018-05-31T07:28:58.866Z,63.93
2018-05-31T07:31:24.851Z,63.88
2018-05-31T07:33:50.898Z,63.71
2018-05-31T07:36:16.923Z,63.37
2018-05-31T07:38:42.901Z,63.60
2018-05-31T07:41:08.869Z,62.86
2018-05-31T07:43:34.818Z,63.34
2018-05-31T07:46:00.815Z,63.47
2018-05-31T07:48:26.773Z,63.49
2018-05-31T07:50:52.781Z,63.50
2018-05-31T07:53:18.765Z,62.90
2018-05-31T07:55:44.770Z,62.56
2018-05-31T07:58:10.744Z,63.35
2018-05-31T08:00:36.682Z,62.73
2018-05-31T08:03:02.760Z,63.14
2018-05-31T08:05:28.720Z,62.93
2018-05-31T08:07:54.697Z,62.17
2018-05-31T08:10:20.777Z,61.71
2018-05-31T08:12:46.740Z,61.78
2018-05-31T08:15:12.699Z,61.57
2018-05-31T08:17:39.259Z,61.21
2018-05-31T08:20:05.235Z,61.86
2018-05-31T08:22:31.341Z,61.64
2018-05-31T08:24:57.339Z,60.75
2018-05-31T08:27:23.304Z,62.88
2018-05-31T08:29:49.330Z,61.94
2018-05-31T08:32:15.241Z,62.18
2018-05-31T08:34:41.205Z,62.36
2018-05-31T08:37:07.159Z,61.39
2018-05-31T08:39:33.118Z,61.87
2018-05-31T08:41:59.071Z,62.16
2018-05-31T08:44:25.098Z,62.23
2018-05-31T08:46:51.021Z,61.41
2018-05-31T08:49:17.021Z,61.89
2018-05-31T08:51:42.996Z,61.79
2018-05-31T08:54:08.974Z,61.34
2018-05-31T08:56:34.952Z,61.28
2018-05-31T08:59:00.927Z,61.39
2018-05-31T09:01:28.158Z,61.37
2018-05-31T09:03:54.163Z,61.57
2018-05-31T09:06:20.143Z,60.50
2018-05-31T09:08:46.127Z,60.94
2018-05-31T09:11:12.111Z,61.64
2018-05-31T09:13:38.084Z,59.86
2018-05-31T09:16:04.053Z,59.74
2018-05-31T09:18:30.029Z,60.16
2018-05-31T09:20:55.993Z,59.84
2018-05-31T09:23:21.980Z,59.50
2018-05-31T09:25:48.931Z,60.17
2018-05-31T09:28:14.908Z,59.25
2018-05-31T09:30:40.909Z,59.98
2018-05-31T09:33:06.904Z,60.27
2018-05-31T09:35:33.917Z,60.35
2018-05-31T09:37:59.876Z,60.50
2018-05-31T09:40:25.834Z,60.40
2018-05-31T09:42:51.786Z,60.81
2018-05-31T09:45:17.817Z,60.74
2018-05-31T09:47:43.842Z,60.77
2018-05-31T09:50:09.804Z,60.33
2018-05-31T09:52:35.760Z,60.16
2018-05-31T09:55:01.835Z,60.04
2018-05-31T09:57:28.893Z,60.42
2018-05-31T09:59:54.865Z,60.24
2018-05-31T10:02:20.843Z,60.24
2018-05-31T10:04:46.835Z,61.37
2018-05-31T10:07:12.805Z,59.80
2018-05-31T10:09:38.785Z,60.70
2018-05-31T10:12:04.748Z,61.12
2018-05-31T10:14:30.742Z,61.08
2018-05-31T10:16:56.689Z,61.88
2018-05-31T10:19:22.670Z,61.53
2018-05-31T10:21:48.652Z,61.14
2018-05-31T10:24:14.621Z,61.44
2018-05-31T10:26:40.582Z,62.41
2018-05-31T10:29:06.542Z,62.71
2018-05-31T10:31:33.602Z,61.65
2018-05-31T10:33:59.576Z,62.28
2018-05-31T10:36:25.553Z,62.37
2018-05-31T10:38:51.601Z,62.94
2018-05-31T10:41:17.595Z,63.16
2018-05-31T10:43:43.555Z,63.24
2018-05-31T10:46:09.523Z,63.16
2018-05-31T10:48:35.506Z,62.97
2018-05-31T10:51:01.491Z,62.33
2018-05-31T10:53:27.452Z,62.86
2018-05-31T10:55:53.461Z,63.10
2018-05-31T10:58:19.428Z,63.14
2018-05-31T11:00:45.441Z,63.20
2018-05-31T11:03:14.758Z,63.26
2018-05-31T11:05:40.727Z,62.84
2018-05-31T11:08:06.736Z,62.74
2018-05-31T11:10:32.699Z,62.65
2018-05-31T11:12:58.705Z,62.94
2018-05-31T11:15:24.707Z,63.55
2018-05-31T11:17:50.774Z,63.19
2018-05-31T11:20:16.762Z,63.22
2018-05-31T11:22:42.772Z,63.21
2018-05-31T11:25:08.843Z,62.84
2018-05-31T11:27:34.821Z,63.12
2018-05-31T11:30:00.811Z,63.15
2018-05-31T11:32:26.774Z,63.00
2018-05-31T11:34:52.817Z,63.00
2018-05-31T11:37:18.776Z,62.51
2018-05-31T11:39:44.738Z,62.71
2018-05-31T11:42:10.758Z,62.85
2018-05-31T11:44:37.783Z,62.62
2018-05-31T11:47:03.761Z,63.01
2018-05-31T11:49:29.833Z,62.59
2018-05-31T11:51:55.796Z,62.92
2018-05-31T11:54:21.795Z,62.88
2018-05-31T11:56:47.770Z,63.69
2018-05-31T11:59:13.744Z,63.21
2018-05-31T12:01:39.783Z,63.28
2018-05-31T12:04:05.765Z,62.72
2018-05-31T12:06:31.764Z,63.05
2018-05-31T12:08:57.788Z,62.80
2018-05-31T12:11:23.784Z,62.94
2018-05-31T12:13:49.760Z,62.97
2018-05-31T12:16:15.744Z,62.81
2018-05-31T12:18:41.710Z,61.97
2018-05-31T12:21:07.731Z,63.21
2018-05-31T12:23:33.726Z,63.47
2018-05-31T12:25:59.691Z,63.13
2018-05-31T12:28:25.786Z,64.13
2018-05-31T12:30:51.744Z,64.32
2018-05-31T12:33:17.737Z,64.48
2018-05-31T12:35:43.769Z,64.36
2018-05-31T12:38:09.931Z,64.46
2018-05-31T12:40:35.938Z,64.30
2018-05-31T12:43:01.939Z,64.16
2018-05-31T12:45:27.940Z,64.26
2018-05-31T12:47:53.908Z,64.29
2018-05-31T12:50:19.921Z,64.09
2018-05-31T12:52:45.877Z,64.25
2018-05-31T12:55:11.879Z,64.02
2018-05-31T12:57:37.834Z,63.72
2018-05-31T13:00:03.824Z,63.83
2018-05-31T13:02:29.764Z,63.93
2018-05-31T13:04:55.738Z,64.01
2018-05-31T13:07:21.711Z,63.96
2018-05-31T13:09:47.709Z,63.96
2018-05-31T13:12:13.689Z,63.88
2018-05-31T13:14:39.664Z,63.80
2018-05-31T13:17:05.656Z,64.05
2018-05-31T13:19:31.677Z,64.08
2018-05-31T13:21:58.908Z,63.76
2018-05-31T13:24:24.914Z,63.86
2018-05-31T13:26:50.938Z,63.97
2018-05-31T13:29:17.020Z,64.02
2018-05-31T13:31:44.071Z,64.14
2018-05-31T13:34:10.069Z,64.37
2018-05-31T13:36:36.049Z,63.95
2018-05-31T13:39:02.043Z,63.81
2018-05-31T13:41:28.010Z,64.08
2018-05-31T13:43:54.001Z,64.04
2018-05-31T13:46:21.070Z,63.90
2018-05-31T13:48:47.048Z,63.75
2018-05-31T13:51:13.015Z,63.56
2018-05-31T13:53:38.962Z,63.78
2018-05-31T13:56:04.919Z,63.91
2018-05-31T13:58:30.873Z,63.86
2018-05-31T14:00:56.936Z,63.99
2018-05-31T14:03:22.899Z,63.90
2018-05-31T14:05:48.920Z,64.06
2018-05-31T14:08:14.980Z,63.94
2018-05-31T14:10:41.038Z,63.98
2018-05-31T14:13:07.013Z,64.02
2018-05-31T14:15:33.353Z,63.93
2018-05-31T14:17:59.379Z,63.77
2018-05-31T14:20:25.372Z,63.76
2018-05-31T14:22:51.392Z,63.89
2018-05-31T14:25:17.437Z,63.83
2018-05-31T14:27:43.425Z,63.87
2018-05-31T14:30:09.409Z,63.81
2018-05-31T14:32:35.393Z,63.58
2018-05-31T14:35:01.380Z,63.48
2018-05-31T14:37:27.369Z,63.84
2018-05-31T14:39:53.367Z,63.47
2018-05-31T14:42:19.360Z,63.85
2018-05-31T14:44:45.328Z,63.63
2018-05-31T14:47:11.302Z,63.29
2018-05-31T14:49:37.312Z,63.89
2018-05-31T14:52:03.305Z,63.62
2018-05-31T14:54:29.294Z,63.82
2018-05-31T14:56:55.305Z,64.12
2018-05-31T14:59:21.274Z,64.34
2018-05-31T15:01:47.265Z,64.14
2018-05-31T15:04:13.302Z,64.27
2018-05-31T15:06:39.353Z,64.24
2018-05-31T15:09:05.367Z,64.16
2018-05-31T15:11:31.345Z,63.97
2018-05-31T15:13:57.314Z,63.54
2018-05-31T15:16:23.301Z,63.72
2018-05-31T15:18:49.266Z,63.73
2018-05-31T15:21:15.233Z,63.92
2018-05-31T15:23:41.222Z,63.87
2018-05-31T15:26:07.177Z,64.10
2018-05-31T15:28:33.177Z,63.75
2018-05-31T15:30:59.135Z,64.05
2018-05-31T15:33:25.148Z,63.90
2018-05-31T15:35:51.130Z,63.91
2018-05-31T15:38:17.111Z,63.60
2018-05-31T15:40:43.074Z,63.20
2018-05-31T15:43:09.049Z,63.69
2018-05-31T15:45:35.035Z,63.70
2018-05-31T15:48:01.050Z,63.68
2018-05-31T15:50:27.929Z,63.76
2018-05-31T15:52:53.908Z,63.57
2018-05-31T15:55:20.009Z,63.59
2018-05-31T15:57:45.988Z,63.62
2018-05-31T16:00:12.016Z,63.63
2018-05-31T16:02:38.031Z,63.68
2018-05-31T16:05:05.021Z,63.86
2018-05-31T16:07:31.003Z,63.71
2018-05-31T16:09:56.981Z,63.74
2018-05-31T16:12:22.967Z,63.67
2018-05-31T16:14:48.921Z,63.54
2018-05-31T16:17:14.982Z,63.45
2018-05-31T16:19:40.953Z,63.77
2018-05-31T16:22:06.937Z,63.57
2018-05-31T16:24:32.884Z,63.67
2018-05-31T16:26:58.844Z,63.87
2018-05-31T16:29:24.830Z,63.32
2018-05-31T16:31:50.792Z,63.70
2018-05-31T16:34:16.766Z,64.10
2018-05-31T16:36:42.731Z,63.55
2018-05-31T16:39:08.702Z,63.30
2018-05-31T16:41:34.671Z,63.56
2018-05-31T16:44:00.632Z,63.58
2018-05-31T16:46:26.600Z,63.63
2018-05-31T16:48:52.558Z,63.52
2018-05-31T16:51:18.525Z,63.59
2018-05-31T16:53:44.483Z,63.67
2018-05-31T16:56:10.469Z,63.73
2018-05-31T16:58:36.433Z,63.36
2018-05-31T17:01:02.455Z,63.40
2018-05-31T17:03:30.471Z,63.24
2018-05-31T17:05:56.465Z,63.60
2018-05-31T17:08:22.444Z,63.73
2018-05-31T17:10:48.438Z,63.59
2018-05-31T17:13:14.400Z,63.58
2018-05-31T17:15:40.409Z,63.68
2018-05-31T17:18:06.396Z,63.67
2018-05-31T17:20:32.363Z,63.72
2018-05-31T17:22:58.378Z,63.40
2018-05-31T17:25:24.386Z,63.47
2018-05-31T17:27:50.385Z,63.65
2018-05-31T17:30:16.370Z,64.15
2018-05-31T17:32:42.343Z,63.93
2018-05-31T17:35:08.311Z,63.78
2018-05-31T17:37:34.315Z,64.08
2018-05-31T17:40:00.276Z,64.13
2018-05-31T17:42:26.251Z,63.97
2018-05-31T17:44:52.261Z,64.16
2018-05-31T17:47:18.260Z,64.23
2018-05-31T17:49:44.239Z,64.60
2018-05-31T17:52:10.317Z,64.89
2018-05-31T17:54:36.284Z,64.83
2018-05-31T17:57:02.250Z,64.71
2018-05-31T17:59:28.221Z,65.27
2018-05-31T18:01:54.212Z,65.14
2018-05-31T18:04:20.197Z,64.88
2018-05-31T18:06:46.193Z,64.84
2018-05-31T18:09:12.181Z,64.73
2018-05-31T18:11:38.229Z,65.16
2018-05-31T18:14:04.267Z,64.86
2018-05-31T18:16:30.239Z,64.94
2018-05-31T18:18:56.226Z,64.68
2018-05-31T18:21:22.178Z,64.55
2018-05-31T18:23:48.180Z,64.34
2018-05-31T18:26:14.155Z,64.02
2018-05-31T18:28:40.111Z,63.97
2018-05-31T18:31:06.082Z,64.00
2018-05-31T18:33:32.053Z,64.17
2018-05-31T18:35:58.046Z,64.15
2018-05-31T18:38:24.007Z,64.36
2018-05-31T18:40:50.031Z,64.25
2018-05-31T18:43:16.031Z,64.28
2018-05-31T18:45:42.045Z,64.12
2018-05-31T18:48:08.024Z,63.97
2018-05-31T18:50:33.999Z,63.83
2018-05-31T18:52:59.969Z,64.09
2018-05-31T18:55:26.065Z,63.65
2018-05-31T18:57:52.036Z,63.14
2018-05-31T19:00:17.997Z,63.41
2018-05-31T19:02:44.043Z,63.94
2018-05-31T19:05:10.023Z,63.53
2018-05-31T19:07:35.987Z,63.63
2018-05-31T19:10:01.953Z,63.98
2018-05-31T19:12:27.933Z,64.11
2018-05-31T19:14:53.897Z,64.02
2018-05-31T19:17:19.878Z,64.15
2018-05-31T19:19:45.847Z,64.12
2018-05-31T19:22:11.827Z,64.09
2018-05-31T19:24:37.805Z,64.19
2018-05-31T19:27:03.784Z,64.07
2018-05-31T19:29:29.840Z,64.09
2018-05-31T19:31:55.831Z,63.76
2018-05-31T19:34:21.792Z,63.67
2018-05-31T19:36:47.763Z,63.89
2018-05-31T19:39:13.714Z,63.83
2018-05-31T19:41:39.704Z,63.87
2018-05-31T19:44:06.716Z,63.81
2018-05-31T19:46:32.709Z,63.76
2018-05-31T19:48:58.671Z,63.92
2018-05-31T19:51:24.642Z,64.27
2018-05-31T19:53:50.593Z,64.10
2018-05-31T19:56:16.579Z,64.14
2018-05-31T19:58:42.572Z,64.00
2018-05-31T20:01:08.567Z,64.14
2018-05-31T20:03:34.531Z,64.04
2018-05-31T20:06:00.533Z,64.06
2018-05-31T20:08:26.616Z,64.14
2018-05-31T20:10:52.577Z,64.19
2018-05-31T20:13:18.574Z,63.95
2018-05-31T20:15:44.538Z,63.76
2018-05-31T20:18:11.564Z,64.16
2018-05-31T20:20:37.581Z,63.89
2018-05-31T20:23:03.686Z,63.90
2018-05-31T20:25:29.665Z,64.25
2018-05-31T20:27:55.634Z,63.83
2018-05-31T20:30:21.643Z,63.37
2018-05-31T20:32:47.605Z,64.31
2018-05-31T20:35:13.565Z,64.32
2018-05-31T20:37:39.585Z,64.42
2018-05-31T20:40:06.640Z,64.33
2018-05-31T20:42:32.660Z,63.58
2018-05-31T20:44:58.708Z,64.11
2018-05-31T20:47:24.670Z,64.71
2018-05-31T20:49:50.651Z,63.36
2018-05-31T20:52:16.615Z,63.59
2018-05-31T20:54:42.701Z,63.56
2018-05-31T20:57:08.672Z,63.34
2018-05-31T20:59:34.610Z,63.23
2018-05-31T21:02:00.573Z,63.65
2018-05-31T21:04:27.220Z,63.54
2018-05-31T21:06:53.201Z,63.91
2018-05-31T21:09:19.141Z,63.75
2018-05-31T21:11:45.117Z,64.22
2018-05-31T21:14:11.121Z,64.30
2018-05-31T21:16:37.080Z,63.46
2018-05-31T21:19:03.072Z,63.60
2018-05-31T21:21:29.049Z,63.49
2018-05-31T21:23:55.003Z,63.95
2018-05-31T21:26:21.007Z,63.89
2018-05-31T21:28:46.962Z,63.75
2018-05-31T21:31:12.961Z,63.50
2018-05-31T21:33:38.904Z,63.48
2018-05-31T21:36:04.882Z,64.23
2018-05-31T21:38:30.841Z,63.81
2018-05-31T21:40:56.801Z,64.29
2018-05-31T21:43:22.765Z,64.31
2018-05-31T21:45:48.823Z,64.04
2018-05-31T21:48:14.823Z,64.17
2018-05-31T21:50:40.773Z,64.34
2018-05-31T21:53:06.752Z,64.39
2018-05-31T21:55:32.716Z,64.07
2018-05-31T21:57:58.697Z,64.24
2018-05-31T22:00:24.772Z,64.24
2018-05-31T22:02:50.783Z,64.15
2018-05-31T22:05:16.988Z,64.08
2018-05-31T22:07:42.964Z,64.18
2018-05-31T22:10:08.938Z,64.36
2018-05-31T22:12:34.917Z,64.22
2018-05-31T22:15:00.921Z,64.39
2018-05-31T22:17:26.899Z,64.18
2018-05-31T22:19:52.885Z,64.30
2018-05-31T22:22:18.843Z,64.56
2018-05-31T22:24:44.833Z,64.42
2018-05-31T22:27:10.801Z,64.28
2018-05-31T22:29:36.782Z,64.44
2018-05-31T22:32:02.765Z,64.65
2018-05-31T22:34:28.778Z,64.61
2018-05-31T22:36:54.753Z,64.57
2018-05-31T22:39:20.708Z,64.53
2018-05-31T22:41:46.713Z,64.30
2018-05-31T22:44:12.675Z,64.46
2018-05-31T22:46:38.680Z,64.42
2018-05-31T22:49:04.654Z,64.38
2018-05-31T22:51:30.625Z,64.47
2018-05-31T22:53:56.577Z,64.78
2018-05-31T22:56:22.923Z,64.61
2018-05-31T22:58:48.912Z,64.60
2018-05-31T23:01:14.891Z,64.51
2018-05-31T23:03:40.880Z,64.27
2018-05-31T23:06:06.863Z,64.10
2018-05-31T23:08:32.852Z,63.95
2018-05-31T23:10:58.816Z,63.77
2018-05-31T23:13:24.811Z,63.79
2018-05-31T23:15:51.154Z,64.25
2018-05-31T23:18:17.107Z,64.39
2018-05-31T23:20:43.067Z,64.26
2018-05-31T23:23:09.025Z,64.26
2018-05-31T23:25:34.984Z,64.01
2018-05-31T23:28:00.954Z,64.14
2018-05-31T23:30:26.964Z,64.20
2018-05-31T23:32:52.925Z,64.03
2018-05-31T23:35:18.888Z,64.19
2018-05-31T23:37:44.889Z,64.17
2018-05-31T23:40:10.852Z,64.08
2018-05-31T23:42:36.827Z,64.06
2018-05-31T23:45:02.793Z,64.12
2018-05-31T23:47:28.771Z,64.19
2018-05-31T23:49:54.727Z,64.19
2018-05-31T23:52:20.712Z,63.86
2018-05-31T23:54:46.667Z,64.04
2018-05-31T23:57:12.668Z,63.86
2018-05-31T23:59:38.616Z,63.99
